createdAt,value
2019-03-18T00:00:54.626Z,6.00
2019-03-18T00:03:21.946Z,6.20
2019-03-18T00:05:49.339Z,6.00
2019-03-18T00:08:16.754Z,5.90
2019-03-18T00:10:44.133Z,6.10
2019-03-18T00:13:11.526Z,6.20
2019-03-18T00:15:38.839Z,6.10
2019-03-18T00:18:06.259Z,6.20
2019-03-18T00:20:33.622Z,6.20
2019-03-18T00:23:00.942Z,6.40
2019-03-18T00:25:28.270Z,6.40
2019-03-18T00:27:55.666Z,6.50
2019-03-18T00:30:23.050Z,6.30
2019-03-18T00:32:50.801Z,6.20
2019-03-18T00:35:18.164Z,6.20
2019-03-18T00:37:45.488Z,6.20
2019-03-18T00:40:12.930Z,5.90
2019-03-18T00:42:40.327Z,5.80
2019-03-18T00:45:14.653Z,5.90
2019-03-18T00:47:37.340Z,5.80
2019-03-18T00:50:05.194Z,5.80
2019-03-18T00:52:32.582Z,5.60
2019-03-18T00:54:59.947Z,5.80
2019-03-18T00:57:27.247Z,5.60
2019-03-18T00:59:54.975Z,5.60
2019-03-18T01:02:22.367Z,5.50
2019-03-18T01:04:49.699Z,5.40
2019-03-18T01:07:17.104Z,5.40
2019-03-18T01:09:44.518Z,5.60
2019-03-18T01:12:11.916Z,5.50
2019-03-18T01:14:39.334Z,5.20
2019-03-18T01:17:06.782Z,5.20
2019-03-18T01:19:34.137Z,5.00
2019-03-18T01:22:01.525Z,4.90
2019-03-18T01:24:29.234Z,4.60
2019-03-18T01:26:56.512Z,4.60
2019-03-18T01:29:23.820Z,4.60
2019-03-18T01:31:51.132Z,4.60
2019-03-18T01:34:18.446Z,4.70
2019-03-18T01:36:45.826Z,4.80
2019-03-18T01:39:13.152Z,4.80
2019-03-18T01:41:40.445Z,4.70
2019-03-18T01:44:08.123Z,4.70
2019-03-18T01:46:35.395Z,4.70
2019-03-18T01:49:02.715Z,4.90
2019-03-18T01:51:30.096Z,5.20
2019-03-18T01:53:57.457Z,5.00
2019-03-18T01:56:24.780Z,5.10
2019-03-18T01:58:52.156Z,5.10
2019-03-18T02:01:19.589Z,5.10
2019-03-18T02:03:46.990Z,5.20
2019-03-18T02:06:14.480Z,5.10
2019-03-18T02:08:41.702Z,5.10
2019-03-18T02:11:09.077Z,5.30
2019-03-18T02:13:36.359Z,5.40
2019-03-18T02:16:04.438Z,5.50
2019-03-18T02:18:32.134Z,5.50
2019-03-18T02:20:59.452Z,5.40
2019-03-18T02:23:26.861Z,5.20
2019-03-18T02:25:54.302Z,4.80
2019-03-18T02:28:21.711Z,4.80
2019-03-18T02:30:49.051Z,4.70
2019-03-18T02:33:16.457Z,4.90
2019-03-18T02:35:43.812Z,5.30
2019-03-18T02:38:11.229Z,5.00
2019-03-18T02:40:38.631Z,5.10
2019-03-18T02:43:05.938Z,5.10
2019-03-18T02:45:33.332Z,5.00
2019-03-18T02:48:00.696Z,5.00
2019-03-18T02:50:28.131Z,4.80
2019-03-18T02:52:55.506Z,4.70
2019-03-18T02:55:22.809Z,4.80
2019-03-18T02:57:50.199Z,4.80
2019-03-18T03:00:17.578Z,4.80
2019-03-18T03:02:45.008Z,5.00
2019-03-18T03:05:12.631Z,5.00
2019-03-18T03:07:40.086Z,5.10
2019-03-18T03:10:08.094Z,5.20
2019-03-18T03:12:35.497Z,5.10
2019-03-18T03:15:03.293Z,5.20
2019-03-18T03:17:30.711Z,4.90
2019-03-18T03:19:58.081Z,5.00
2019-03-18T03:22:25.492Z,5.10
2019-03-18T03:24:52.897Z,5.00
2019-03-18T03:27:20.296Z,5.20
2019-03-18T03:29:47.625Z,5.30
2019-03-18T03:32:15.008Z,5.30
2019-03-18T03:34:42.330Z,5.30
2019-03-18T03:37:09.636Z,5.20
2019-03-18T03:39:37.039Z,5.00
2019-03-18T03:42:04.329Z,4.80
2019-03-18T03:44:31.691Z,5.10
2019-03-18T03:46:59.121Z,5.10
2019-03-18T03:49:26.491Z,5.10
2019-03-18T03:51:54.238Z,5.00
2019-03-18T03:54:21.699Z,5.00
2019-03-18T03:56:49.091Z,5.30
2019-03-18T03:59:16.717Z,5.40
2019-03-18T04:01:44.216Z,5.00
2019-03-18T04:04:11.689Z,5.10
2019-03-18T04:06:39.192Z,4.80
2019-03-18T04:09:06.602Z,4.90
2019-03-18T04:11:34.030Z,5.10
2019-03-18T04:14:01.423Z,4.90
2019-03-18T04:16:28.738Z,4.80
2019-03-18T04:18:56.167Z,4.90
2019-03-18T04:21:23.558Z,5.00
2019-03-18T04:23:50.922Z,4.80
2019-03-18T04:26:18.289Z,5.00
2019-03-18T04:28:45.597Z,5.00
2019-03-18T04:31:12.910Z,5.20
2019-03-18T04:33:40.250Z,5.20
2019-03-18T04:36:07.649Z,5.00
2019-03-18T04:38:34.941Z,4.80
2019-03-18T04:41:02.343Z,4.90
2019-03-18T04:43:29.739Z,4.80
2019-03-18T04:45:57.127Z,4.80
2019-03-18T04:48:24.573Z,4.80
2019-03-18T04:50:52.001Z,4.60
2019-03-18T04:53:19.392Z,4.70
2019-03-18T04:55:46.697Z,4.60
2019-03-18T04:58:13.982Z,4.60
2019-03-18T05:00:41.541Z,4.70
2019-03-18T05:03:08.931Z,4.70
2019-03-18T05:05:36.321Z,4.90
2019-03-18T05:08:03.668Z,4.70
2019-03-18T05:10:31.073Z,5.10
2019-03-18T05:12:58.441Z,5.20
2019-03-18T05:15:25.743Z,5.10
2019-03-18T05:17:53.149Z,5.20
2019-03-18T05:20:20.516Z,5.30
2019-03-18T05:22:47.896Z,5.30
2019-03-18T05:25:15.230Z,5.40
2019-03-18T05:27:42.611Z,5.50
2019-03-18T05:30:10.109Z,5.50
2019-03-18T05:32:37.513Z,5.50
2019-03-18T05:35:04.964Z,5.50
2019-03-18T05:37:32.271Z,5.40
2019-03-18T05:39:59.552Z,5.30
2019-03-18T05:42:26.957Z,5.50
2019-03-18T05:44:54.232Z,5.50
2019-03-18T05:47:21.925Z,5.50
2019-03-18T05:49:49.206Z,5.30
2019-03-18T05:52:16.634Z,5.40
2019-03-18T05:54:44.013Z,5.50
2019-03-18T05:57:11.328Z,5.40
2019-03-18T05:59:38.745Z,5.20
2019-03-18T06:02:06.152Z,5.20
2019-03-18T06:04:33.543Z,5.30
2019-03-18T06:07:01.354Z,5.00
2019-03-18T06:09:29.034Z,5.20
2019-03-18T06:11:56.329Z,5.40
2019-03-18T06:14:23.758Z,5.20
2019-03-18T06:16:51.239Z,5.20
2019-03-18T06:19:18.631Z,5.40
2019-03-18T06:21:46.047Z,5.40
2019-03-18T06:24:13.439Z,5.30
2019-03-18T06:26:40.834Z,5.30
2019-03-18T06:29:08.603Z,5.40
2019-03-18T06:31:36.035Z,5.70
2019-03-18T06:34:03.406Z,5.70
2019-03-18T06:36:30.861Z,5.70
2019-03-18T06:38:58.240Z,5.60
2019-03-18T06:41:25.566Z,5.40
2019-03-18T06:43:52.964Z,5.40
2019-03-18T06:46:20.273Z,5.40
2019-03-18T06:48:47.798Z,5.60
2019-03-18T06:51:15.220Z,5.60
2019-03-18T06:53:42.674Z,5.30
2019-03-18T06:56:10.029Z,5.50
2019-03-18T06:58:37.331Z,5.60
2019-03-18T07:01:05.037Z,5.80
2019-03-18T07:03:32.343Z,5.80
2019-03-18T07:05:59.725Z,6.00
2019-03-18T07:08:27.564Z,6.00
2019-03-18T07:10:54.975Z,6.10
2019-03-18T07:13:22.370Z,5.90
2019-03-18T07:15:49.796Z,6.00
2019-03-18T07:18:18.785Z,5.90
2019-03-18T07:20:46.515Z,5.80
2019-03-18T07:23:13.951Z,5.90
2019-03-18T07:25:41.353Z,6.00
2019-03-18T07:28:09.171Z,6.10
2019-03-18T07:30:36.568Z,6.20
2019-03-18T07:33:03.981Z,6.20
2019-03-18T07:35:31.401Z,6.30
2019-03-18T07:37:58.672Z,6.20
2019-03-18T07:40:25.957Z,6.40
2019-03-18T07:42:53.230Z,6.20
2019-03-18T07:45:20.540Z,6.30
2019-03-18T07:47:47.976Z,6.40
2019-03-18T07:50:15.304Z,6.30
2019-03-18T07:52:42.756Z,6.40
2019-03-18T07:55:10.258Z,6.40
2019-03-18T07:57:37.656Z,6.70
2019-03-18T08:00:05.209Z,6.80
2019-03-18T08:02:32.603Z,6.80
2019-03-18T08:04:59.917Z,7.00
2019-03-18T08:07:27.346Z,7.10
2019-03-18T08:09:54.725Z,7.20
2019-03-18T08:12:22.052Z,7.30
2019-03-18T08:14:49.479Z,7.10
2019-03-18T08:17:16.775Z,7.00
2019-03-18T08:19:44.122Z,7.10
2019-03-18T08:22:11.731Z,7.10
2019-03-18T08:24:39.133Z,6.90
2019-03-18T08:27:06.571Z,7.10
2019-03-18T08:29:33.972Z,7.50
2019-03-18T08:32:01.270Z,7.60
2019-03-18T08:34:28.594Z,7.40
2019-03-18T08:36:56.038Z,7.50
2019-03-18T08:39:23.356Z,7.50
2019-03-18T08:41:50.765Z,7.50
2019-03-18T08:44:18.064Z,7.50
2019-03-18T08:46:45.489Z,7.50
2019-03-18T08:49:12.885Z,7.50
2019-03-18T08:51:40.599Z,7.80
2019-03-18T08:54:08.004Z,8.20
2019-03-18T08:56:35.402Z,8.40
2019-03-18T08:59:02.839Z,8.40
2019-03-18T09:01:30.224Z,8.40
2019-03-18T09:03:57.558Z,8.40
2019-03-18T09:06:24.894Z,8.30
2019-03-18T09:08:52.281Z,8.20
2019-03-18T09:11:19.627Z,8.20
2019-03-18T09:13:47.291Z,8.30
2019-03-18T09:16:14.628Z,8.40
2019-03-18T09:18:41.948Z,8.60
2019-03-18T09:21:09.368Z,8.70
2019-03-18T09:23:36.762Z,8.70
2019-03-18T09:26:04.096Z,8.40
2019-03-18T09:28:31.506Z,8.30
2019-03-18T09:30:58.982Z,8.30
2019-03-18T09:33:26.377Z,8.40
2019-03-18T09:35:54.138Z,8.70
2019-03-18T09:38:21.580Z,9.10
2019-03-18T09:40:49.302Z,9.50
2019-03-18T09:43:16.645Z,10.10
2019-03-18T09:45:44.035Z,10.40
2019-03-18T09:48:11.483Z,10.40
2019-03-18T09:50:38.891Z,10.00
2019-03-18T09:53:06.351Z,9.70
2019-03-18T09:55:33.792Z,9.60
2019-03-18T09:58:01.213Z,9.40
2019-03-18T10:00:28.537Z,9.40
2019-03-18T10:02:55.968Z,9.10
2019-03-18T10:05:23.396Z,9.00
2019-03-18T10:07:50.839Z,8.80
2019-03-18T10:10:18.237Z,8.50
2019-03-18T10:12:45.559Z,8.50
2019-03-18T10:15:12.929Z,8.40
2019-03-18T10:17:40.370Z,8.30
2019-03-18T10:20:08.196Z,8.10
2019-03-18T10:22:36.154Z,7.70
2019-03-18T10:25:04.491Z,7.40
2019-03-18T10:27:32.011Z,7.10
2019-03-18T10:29:59.466Z,7.20
2019-03-18T10:32:26.757Z,7.70
2019-03-18T10:34:54.198Z,8.20
2019-03-18T10:37:21.604Z,8.70
2019-03-18T10:39:48.988Z,10.10
2019-03-18T10:42:16.382Z,11.40
2019-03-18T10:44:43.677Z,11.90
2019-03-18T10:47:11.009Z,11.50
2019-03-18T10:49:46.074Z,11.20
2019-03-18T10:52:07.646Z,10.70
2019-03-18T10:54:35.389Z,10.10
2019-03-18T10:57:02.772Z,9.80
2019-03-18T10:59:30.210Z,9.40
2019-03-18T11:01:57.645Z,9.20
2019-03-18T11:04:25.067Z,8.90
2019-03-18T11:06:52.346Z,9.10
2019-03-18T11:09:19.586Z,9.20
2019-03-18T11:11:46.991Z,9.10
2019-03-18T11:14:14.446Z,9.20
2019-03-18T11:16:41.855Z,9.60
2019-03-18T11:19:09.305Z,9.90
2019-03-18T11:21:36.618Z,10.90
2019-03-18T11:24:03.928Z,12.90
2019-03-18T11:26:31.242Z,15.40
2019-03-18T11:28:58.659Z,16.60
2019-03-18T11:31:26.118Z,16.70
2019-03-18T11:33:53.505Z,16.00
2019-03-18T11:36:20.917Z,15.00
2019-03-18T11:38:48.283Z,14.30
2019-03-18T11:41:17.486Z,13.60
2019-03-18T11:43:44.941Z,12.50
2019-03-18T11:46:12.386Z,11.90
2019-03-18T11:48:39.789Z,11.40
2019-03-18T11:51:07.217Z,11.40
2019-03-18T11:53:34.548Z,11.90
2019-03-18T11:56:02.332Z,13.60
2019-03-18T11:58:29.746Z,16.60
2019-03-18T12:00:57.210Z,18.50
2019-03-18T12:03:25.292Z,18.80
2019-03-18T12:05:52.648Z,17.80
2019-03-18T12:08:20.091Z,18.00
2019-03-18T12:10:47.546Z,17.30
2019-03-18T12:13:15.235Z,16.40
2019-03-18T12:15:42.986Z,15.00
2019-03-18T12:18:10.672Z,14.30
2019-03-18T12:20:38.103Z,14.20
2019-03-18T12:23:05.588Z,13.90
2019-03-18T12:25:33.874Z,13.60
2019-03-18T12:28:04.794Z,13.70
2019-03-18T12:30:30.859Z,13.90
2019-03-18T12:32:58.301Z,13.80
2019-03-18T12:35:26.082Z,14.30
2019-03-18T12:37:53.613Z,13.20
2019-03-18T12:40:21.039Z,12.00
2019-03-18T12:42:48.415Z,11.40
2019-03-18T12:45:15.837Z,10.60
2019-03-18T12:47:43.252Z,9.80
2019-03-18T12:50:12.796Z,9.60
2019-03-18T12:52:40.249Z,9.50
2019-03-18T12:55:07.751Z,9.30
2019-03-18T12:57:35.051Z,9.10
2019-03-18T13:00:02.638Z,9.00
2019-03-18T13:02:30.079Z,9.00
2019-03-18T13:04:57.487Z,9.30
2019-03-18T13:07:24.837Z,9.70
2019-03-18T13:09:52.256Z,9.80
2019-03-18T13:12:19.660Z,9.90
2019-03-18T13:14:47.023Z,10.00
2019-03-18T13:17:14.405Z,9.80
2019-03-18T13:19:41.712Z,9.70
2019-03-18T13:22:09.447Z,9.90
2019-03-18T13:24:36.805Z,9.80
2019-03-18T13:27:04.142Z,10.10
2019-03-18T13:29:31.573Z,10.30
2019-03-18T13:31:59.871Z,10.50
2019-03-18T13:34:27.296Z,10.90
2019-03-18T13:36:54.721Z,12.50
2019-03-18T13:39:22.195Z,14.80
2019-03-18T13:41:49.600Z,16.50
2019-03-18T13:44:17.387Z,15.60
2019-03-18T13:46:44.818Z,14.30
2019-03-18T13:49:12.232Z,13.40
2019-03-18T13:51:39.599Z,13.80
2019-03-18T13:54:07.028Z,15.30
2019-03-18T13:56:34.451Z,17.10
2019-03-18T13:59:01.896Z,18.70
2019-03-18T14:01:29.633Z,20.00
2019-03-18T14:03:57.057Z,20.30
2019-03-18T14:06:24.404Z,21.00
2019-03-18T14:08:51.866Z,21.30
2019-03-18T14:11:19.287Z,21.50
2019-03-18T14:13:46.752Z,21.00
2019-03-18T14:16:14.187Z,20.90
2019-03-18T14:18:41.534Z,21.20
2019-03-18T14:21:09.346Z,21.60
2019-03-18T14:23:37.106Z,23.10
2019-03-18T14:26:04.926Z,24.70
2019-03-18T14:28:32.164Z,25.20
2019-03-18T14:30:59.914Z,24.80
2019-03-18T14:33:27.364Z,22.50
2019-03-18T14:35:54.786Z,21.10
2019-03-18T14:38:22.477Z,20.40
2019-03-18T14:40:49.932Z,20.40
2019-03-18T14:43:17.310Z,20.10
2019-03-18T14:45:44.791Z,20.20
2019-03-18T14:48:12.257Z,20.20
2019-03-18T14:50:39.724Z,19.70
2019-03-18T14:53:07.210Z,19.00
2019-03-18T14:55:34.668Z,18.20
2019-03-18T14:58:02.115Z,17.80
2019-03-18T15:00:29.521Z,18.10
2019-03-18T15:02:56.937Z,19.40
2019-03-18T15:05:24.448Z,20.20
2019-03-18T15:07:51.824Z,20.90
2019-03-18T15:10:19.263Z,22.10
2019-03-18T15:12:46.724Z,23.20
2019-03-18T15:15:16.192Z,23.40
2019-03-18T15:17:43.975Z,22.20
2019-03-18T15:20:12.464Z,21.70
2019-03-18T15:22:40.450Z,22.10
2019-03-18T15:25:11.100Z,22.70
2019-03-18T15:27:38.548Z,22.70
2019-03-18T15:30:08.055Z,21.90
2019-03-18T15:32:35.501Z,20.80
2019-03-18T15:35:03.079Z,19.90
2019-03-18T15:37:30.509Z,17.80
2019-03-18T15:39:57.951Z,16.80
2019-03-18T15:42:25.367Z,16.20
2019-03-18T15:44:52.719Z,15.60
2019-03-18T15:47:20.147Z,15.50
2019-03-18T15:49:47.939Z,15.40
2019-03-18T15:52:15.672Z,14.90
2019-03-18T15:54:53.426Z,14.50
2019-03-18T15:57:12.326Z,13.90
2019-03-18T15:59:39.719Z,13.70
2019-03-18T16:02:07.177Z,13.60
2019-03-18T16:04:34.535Z,13.40
2019-03-18T16:07:02.023Z,13.20
2019-03-18T16:09:29.518Z,13.00
2019-03-18T16:11:56.955Z,12.80
2019-03-18T16:14:24.419Z,12.30
2019-03-18T16:17:01.410Z,12.00
2019-03-18T16:19:21.874Z,11.80
2019-03-18T16:21:49.301Z,11.90
2019-03-18T16:24:17.205Z,11.80
2019-03-18T16:26:45.096Z,11.60
2019-03-18T16:29:12.478Z,11.40
2019-03-18T16:31:39.908Z,11.30
2019-03-18T16:34:07.359Z,11.30
2019-03-18T16:36:34.789Z,11.10
2019-03-18T16:39:02.304Z,10.70
2019-03-18T16:41:29.801Z,10.50
2019-03-18T16:43:57.317Z,10.50
2019-03-18T16:46:24.730Z,10.30
2019-03-18T16:48:52.217Z,9.90
2019-03-18T16:51:19.660Z,9.60
2019-03-18T16:53:47.005Z,9.20
2019-03-18T16:56:14.705Z,8.70
2019-03-18T16:58:42.163Z,8.60
2019-03-18T17:01:09.607Z,8.50
2019-03-18T17:03:36.997Z,8.40
2019-03-18T17:06:04.880Z,8.20
2019-03-18T17:08:32.321Z,8.20
2019-03-18T17:10:59.755Z,8.10
2019-03-18T17:13:27.469Z,7.90
2019-03-18T17:15:55.171Z,8.00
2019-03-18T17:18:22.593Z,7.80
2019-03-18T17:20:50.382Z,7.50
2019-03-18T17:23:17.833Z,7.40
2019-03-18T17:25:45.313Z,7.40
2019-03-18T17:28:12.764Z,7.40
2019-03-18T17:30:40.203Z,7.80
2019-03-18T17:33:08.085Z,7.80
2019-03-18T17:35:35.553Z,7.90
2019-03-18T17:38:03.401Z,8.00
2019-03-18T17:40:30.866Z,8.00
2019-03-18T17:42:58.393Z,8.00
2019-03-18T17:45:25.774Z,7.90
2019-03-18T17:47:53.276Z,7.50
2019-03-18T17:50:21.099Z,7.60
2019-03-18T17:53:01.000Z,7.60
2019-03-18T17:55:17.893Z,7.80
2019-03-18T17:57:45.313Z,7.90
2019-03-18T18:00:17.606Z,8.00
2019-03-18T18:02:45.062Z,8.00
2019-03-18T18:05:12.782Z,8.00
2019-03-18T18:07:40.306Z,7.90
2019-03-18T18:10:07.985Z,7.90
2019-03-18T18:12:35.478Z,8.00
2019-03-18T18:15:03.127Z,8.00
2019-03-18T18:17:31.429Z,7.80
2019-03-18T18:19:58.980Z,7.50
2019-03-18T18:22:26.850Z,7.40
2019-03-18T18:24:54.290Z,7.30
2019-03-18T18:27:21.760Z,7.10
2019-03-18T18:29:49.249Z,7.40
2019-03-18T18:32:17.132Z,7.50
2019-03-18T18:34:45.013Z,7.60
2019-03-18T18:37:12.494Z,7.50
2019-03-18T18:39:40.014Z,7.50
2019-03-18T18:42:07.479Z,7.10
2019-03-18T18:44:34.895Z,7.00
2019-03-18T18:47:02.998Z,7.20
2019-03-18T18:49:30.548Z,7.10
2019-03-18T18:51:58.062Z,7.10
2019-03-18T18:54:25.597Z,7.10
2019-03-18T18:56:53.502Z,7.10
2019-03-18T18:59:21.043Z,7.20
2019-03-18T19:01:49.343Z,7.20
2019-03-18T19:04:16.831Z,7.30
2019-03-18T19:06:44.675Z,7.30
2019-03-18T19:09:12.203Z,7.30
2019-03-18T19:11:39.729Z,7.10
2019-03-18T19:14:07.245Z,7.10
2019-03-18T19:16:34.728Z,7.20
2019-03-18T19:19:02.247Z,7.00
2019-03-18T19:21:29.847Z,7.00
2019-03-18T19:23:57.309Z,7.00
2019-03-18T19:26:24.848Z,7.00
2019-03-18T19:28:52.344Z,7.00
2019-03-18T19:31:19.929Z,6.60
2019-03-18T19:33:47.920Z,6.20
2019-03-18T19:36:15.547Z,6.30
2019-03-18T19:38:43.620Z,6.50
2019-03-18T19:41:11.571Z,6.70
2019-03-18T19:43:39.133Z,6.70
2019-03-18T19:46:06.702Z,6.70
2019-03-18T19:48:34.608Z,6.70
2019-03-18T19:51:02.626Z,6.70
2019-03-18T19:53:30.115Z,6.50
2019-03-18T19:55:57.677Z,6.00
2019-03-18T19:58:25.151Z,5.80
2019-03-18T20:00:52.687Z,5.80
2019-03-18T20:03:20.261Z,5.90
2019-03-18T20:05:47.852Z,5.90
2019-03-18T20:08:15.393Z,5.70
2019-03-18T20:10:43.016Z,5.80
2019-03-18T20:13:10.542Z,5.90
2019-03-18T20:15:38.556Z,5.80
2019-03-18T20:18:06.060Z,5.80
2019-03-18T20:20:34.070Z,5.80
2019-03-18T20:23:01.697Z,5.60
2019-03-18T20:25:29.264Z,5.50
2019-03-18T20:27:56.849Z,5.50
2019-03-18T20:30:24.677Z,5.60
2019-03-18T20:32:52.287Z,5.60
2019-03-18T20:35:19.902Z,5.70
2019-03-18T20:37:47.439Z,5.90
2019-03-18T20:40:15.405Z,6.00
2019-03-18T20:42:42.945Z,5.90
2019-03-18T20:45:12.214Z,5.40
2019-03-18T20:47:39.733Z,5.30
2019-03-18T20:50:09.551Z,5.40
2019-03-18T20:52:37.129Z,5.40
2019-03-18T20:55:04.768Z,5.40
2019-03-18T20:57:32.287Z,5.40
2019-03-18T20:59:59.858Z,5.60
2019-03-18T21:02:27.313Z,5.70
2019-03-18T21:04:54.689Z,5.90
2019-03-18T21:07:22.172Z,5.90
2019-03-18T21:09:49.652Z,5.70
2019-03-18T21:12:17.156Z,5.90
2019-03-18T21:14:44.640Z,6.00
2019-03-18T21:17:12.113Z,5.80
2019-03-18T21:19:39.464Z,5.70
2019-03-18T21:22:06.933Z,5.60
2019-03-18T21:24:34.470Z,6.00
2019-03-18T21:27:01.964Z,5.90
2019-03-18T21:29:29.501Z,6.00
2019-03-18T21:31:57.258Z,6.00
2019-03-18T21:34:24.726Z,6.00
2019-03-18T21:36:52.186Z,6.10
2019-03-18T21:39:19.660Z,6.10
2019-03-18T21:41:47.126Z,6.10
2019-03-18T21:44:14.586Z,6.10
2019-03-18T21:46:43.397Z,6.10
2019-03-18T21:49:11.181Z,5.70
2019-03-18T21:51:38.630Z,5.90
2019-03-18T21:54:05.990Z,5.80
2019-03-18T21:56:33.473Z,5.70
2019-03-18T21:59:02.020Z,5.40
2019-03-18T22:01:29.695Z,5.20
2019-03-18T22:03:57.891Z,4.80
2019-03-18T22:06:25.376Z,5.10
2019-03-18T22:08:52.815Z,5.30
2019-03-18T22:11:20.272Z,5.50
2019-03-18T22:13:47.727Z,5.50
2019-03-18T22:16:15.469Z,5.50
2019-03-18T22:18:43.043Z,5.50
2019-03-18T22:21:10.517Z,5.20
2019-03-18T22:23:37.961Z,5.40
2019-03-18T22:26:05.471Z,5.40
2019-03-18T22:28:32.820Z,5.40
2019-03-18T22:31:00.263Z,5.30
2019-03-18T22:33:28.225Z,5.20
2019-03-18T22:35:55.621Z,5.20
2019-03-18T22:38:23.329Z,5.10
2019-03-18T22:40:50.771Z,5.00
2019-03-18T22:43:18.207Z,5.00
2019-03-18T22:45:45.640Z,5.10
2019-03-18T22:48:12.968Z,5.30
2019-03-18T22:50:40.334Z,5.30
2019-03-18T22:53:07.756Z,5.30
2019-03-18T22:55:35.163Z,5.40
2019-03-18T22:58:02.496Z,5.40
2019-03-18T23:00:46.155Z,5.40
2019-03-18T23:03:13.584Z,5.30
2019-03-18T23:05:41.074Z,5.20
2019-03-18T23:08:08.477Z,5.30
2019-03-18T23:10:35.803Z,5.00
2019-03-18T23:13:03.263Z,4.70
2019-03-18T23:15:30.700Z,4.50
2019-03-18T23:17:58.100Z,4.70
2019-03-18T23:20:25.556Z,4.70
2019-03-18T23:22:52.987Z,4.60
2019-03-18T23:25:20.377Z,4.60
2019-03-18T23:27:48.042Z,4.30
2019-03-18T23:30:15.475Z,4.60
2019-03-18T23:32:42.896Z,4.60
2019-03-18T23:35:10.743Z,4.60
2019-03-18T23:37:38.141Z,4.70
2019-03-18T23:40:05.577Z,4.50
2019-03-18T23:42:33.030Z,4.20
2019-03-18T23:45:00.491Z,3.90
2019-03-18T23:47:27.861Z,3.80
2019-03-18T23:49:55.255Z,4.00
2019-03-18T23:52:22.679Z,4.10
2019-03-18T23:54:50.089Z,4.00
2019-03-18T23:57:17.420Z,4.20
2019-03-18T23:59:44.812Z,4.30
